createdAt,value
2018-05-03T00:00:53.080Z,46.50
2018-05-03T00:03:21.587Z,47.80
2018-05-03T00:05:49.307Z,47.80
2018-05-03T00:08:17.048Z,47.10
2018-05-03T00:10:44.771Z,46.50
2018-05-03T00:13:12.575Z,46.70
2018-05-03T00:15:40.345Z,46.90
2018-05-03T00:18:08.878Z,48.50
2018-05-03T00:20:36.632Z,48.50
2018-05-03T00:23:04.446Z,48.20
2018-05-03T00:25:32.192Z,48.00
2018-05-03T00:27:59.984Z,47.60
2018-05-03T00:30:27.721Z,48.20
2018-05-03T00:32:56.235Z,49.80
2018-05-03T00:35:24.700Z,48.40
2018-05-03T00:37:53.223Z,48.40
2018-05-03T00:40:20.974Z,48.50
2018-05-03T00:42:48.707Z,49.00
2018-05-03T00:45:16.482Z,48.40
2018-05-03T00:47:44.232Z,49.30
2018-05-03T00:50:11.964Z,50.00
2018-05-03T00:52:39.765Z,49.40
2018-05-03T00:55:08.293Z,49.70
2018-05-03T00:57:36.089Z,49.80
2018-05-03T01:00:03.844Z,49.90
2018-05-03T01:02:31.656Z,49.80
2018-05-03T01:04:59.425Z,52.20
2018-05-03T01:07:27.218Z,52.90
2018-05-03T01:09:54.912Z,53.20
2018-05-03T01:12:22.709Z,51.30
2018-05-03T01:14:50.421Z,50.60
2018-05-03T01:17:18.204Z,50.50
2018-05-03T01:19:45.956Z,51.30
2018-05-03T01:22:13.723Z,52.00
2018-05-03T01:24:41.481Z,52.10
2018-05-03T01:27:09.999Z,51.20
2018-05-03T01:29:37.799Z,51.20
2018-05-03T01:32:05.600Z,53.00
2018-05-03T01:34:33.372Z,52.60
2018-05-03T01:37:01.135Z,52.00
2018-05-03T01:39:28.861Z,52.70
2018-05-03T01:41:57.452Z,51.20
2018-05-03T01:44:25.197Z,51.20
2018-05-03T01:46:52.934Z,51.80
2018-05-03T01:49:20.683Z,51.50
2018-05-03T01:51:48.407Z,52.40
2018-05-03T01:54:16.169Z,53.70
2018-05-03T01:56:43.892Z,52.50
2018-05-03T01:59:11.683Z,51.30
2018-05-03T02:01:39.463Z,52.10
2018-05-03T02:04:07.213Z,52.60
2018-05-03T02:06:34.955Z,52.50
2018-05-03T02:09:02.740Z,51.30
2018-05-03T02:11:30.469Z,51.30
2018-05-03T02:13:59.020Z,53.10
2018-05-03T02:16:26.739Z,53.10
2018-05-03T02:18:54.577Z,53.10
2018-05-03T02:21:22.360Z,53.20
2018-05-03T02:23:50.103Z,53.10
2018-05-03T02:26:17.884Z,52.80
2018-05-03T02:28:45.654Z,52.20
2018-05-03T02:31:13.359Z,53.00
2018-05-03T02:33:41.098Z,54.00
2018-05-03T02:36:09.569Z,53.50
2018-05-03T02:38:37.323Z,53.40
2018-05-03T02:41:05.092Z,54.30
2018-05-03T02:43:32.944Z,54.30
2018-05-03T02:46:00.717Z,53.90
2018-05-03T02:48:28.474Z,53.60
2018-05-03T02:50:56.196Z,55.20
2018-05-03T02:53:23.972Z,54.50
2018-05-03T02:55:51.667Z,54.10
2018-05-03T02:58:31.164Z,54.00
2018-05-03T03:01:17.312Z,54.70
2018-05-03T03:04:02.541Z,54.70
2018-05-03T03:06:48.544Z,54.80
2018-05-03T03:09:34.009Z,54.70
2018-05-03T03:15:48.207Z,52.00
2018-05-03T03:18:33.604Z,53.80
2018-05-03T03:21:19.232Z,53.20
2018-05-03T03:24:04.458Z,53.30
2018-05-03T03:29:58.505Z,54.50
2018-05-03T03:32:38.036Z,54.70
2018-05-03T03:35:25.680Z,54.40
2018-05-03T03:38:10.933Z,54.20
2018-05-03T03:40:50.391Z,53.80
2018-05-03T03:43:30.725Z,53.00
2018-05-03T03:45:58.542Z,53.00
2018-05-03T03:48:27.018Z,53.60
2018-05-03T03:50:54.768Z,53.60
2018-05-03T03:53:22.557Z,53.50
2018-05-03T03:55:50.988Z,53.70
2018-05-03T03:58:18.709Z,53.60
2018-05-03T04:00:46.442Z,54.60
2018-05-03T04:03:14.908Z,53.70
2018-05-03T04:05:42.670Z,53.70
2018-05-03T04:08:10.415Z,53.50
2018-05-03T04:10:38.128Z,52.90
2018-05-03T04:13:05.791Z,52.60
2018-05-03T04:15:33.581Z,52.00
2018-05-03T04:18:13.094Z,52.20
2018-05-03T04:21:02.733Z,53.30
2018-05-03T04:23:42.330Z,54.30
2018-05-03T04:26:10.097Z,54.50
2018-05-03T04:28:38.565Z,53.80
2018-05-03T04:31:06.322Z,53.80
2018-05-03T04:33:34.063Z,54.40
2018-05-03T04:36:02.582Z,53.80
2018-05-03T04:38:30.283Z,53.70
2018-05-03T04:40:57.999Z,54.60
2018-05-03T04:43:26.472Z,55.60
2018-05-03T04:45:54.224Z,55.60
2018-05-03T04:48:21.994Z,54.50
2018-05-03T04:50:50.169Z,55.10
2018-05-03T04:53:17.968Z,53.90
2018-05-03T04:55:45.672Z,53.80
2018-05-03T04:58:13.453Z,53.60
2018-05-03T05:00:41.187Z,52.80
2018-05-03T05:03:09.041Z,53.50
2018-05-03T05:05:36.798Z,53.90
2018-05-03T05:08:04.624Z,54.10
2018-05-03T05:10:32.455Z,54.80
2018-05-03T05:13:00.149Z,55.10
2018-05-03T05:15:27.841Z,53.20
2018-05-03T05:17:55.749Z,52.40
2018-05-03T05:20:23.470Z,52.30
2018-05-03T05:22:51.182Z,53.40
2018-05-03T05:25:18.892Z,52.90
2018-05-03T05:27:46.625Z,53.20
2018-05-03T05:30:14.349Z,52.70
2018-05-03T05:32:42.109Z,52.70
2018-05-03T05:35:09.809Z,51.90
2018-05-03T05:37:38.372Z,51.30
2018-05-03T05:40:06.210Z,51.30
2018-05-03T05:42:33.955Z,54.20
2018-05-03T05:45:01.700Z,54.60
2018-05-03T05:47:29.486Z,53.10
2018-05-03T05:49:57.231Z,53.50
2018-05-03T05:52:24.930Z,52.10
2018-05-03T05:54:52.719Z,50.70
2018-05-03T05:57:20.405Z,49.00
2018-05-03T05:59:48.148Z,49.10
2018-05-03T06:02:16.128Z,49.10
2018-05-03T06:04:43.878Z,48.40
2018-05-03T06:07:11.697Z,47.80
2018-05-03T06:09:39.425Z,46.00
2018-05-03T06:12:07.276Z,49.50
2018-05-03T06:14:35.796Z,50.40
2018-05-03T06:17:03.551Z,50.30
2018-05-03T06:19:31.303Z,48.80
2018-05-03T06:21:59.020Z,47.70
2018-05-03T06:24:27.576Z,45.20
2018-05-03T06:26:55.264Z,44.60
2018-05-03T06:29:22.981Z,44.90
2018-05-03T06:31:50.689Z,48.80
2018-05-03T06:34:18.463Z,49.90
2018-05-03T06:36:46.209Z,49.70
2018-05-03T06:39:13.936Z,46.00
2018-05-03T06:41:41.734Z,45.10
2018-05-03T06:44:10.257Z,45.70
2018-05-03T06:46:37.959Z,45.70
2018-05-03T06:49:05.692Z,45.30
2018-05-03T06:51:33.405Z,48.90
2018-05-03T06:54:01.152Z,49.00
2018-05-03T06:56:28.913Z,45.90
2018-05-03T06:58:56.641Z,45.50
2018-05-03T07:01:24.401Z,47.50
2018-05-03T07:03:52.142Z,45.60
2018-05-03T07:06:20.737Z,45.70
2018-05-03T07:08:49.274Z,45.10
2018-05-03T07:11:16.947Z,45.00
2018-05-03T07:13:44.711Z,43.10
2018-05-03T07:16:12.459Z,42.30
2018-05-03T07:18:40.432Z,43.90
2018-05-03T07:21:08.263Z,44.00
2018-05-03T07:23:36.052Z,40.90
2018-05-03T07:26:03.841Z,45.20
2018-05-03T07:28:31.654Z,43.10
2018-05-03T07:30:59.478Z,41.20
2018-05-03T07:33:27.263Z,40.10
2018-05-03T07:35:55.056Z,40.70
2018-05-03T07:38:22.752Z,42.10
2018-05-03T07:40:51.293Z,41.50
2018-05-03T07:43:19.053Z,41.50
2018-05-03T07:45:47.639Z,42.10
2018-05-03T07:48:15.338Z,42.10
2018-05-03T07:50:43.088Z,42.10
2018-05-03T07:53:11.537Z,44.50
2018-05-03T07:55:39.321Z,44.20
2018-05-03T07:58:07.080Z,41.50
2018-05-03T08:00:34.837Z,42.60
2018-05-03T08:03:02.532Z,40.40
2018-05-03T08:05:30.299Z,40.70
2018-05-03T08:07:58.057Z,38.80
2018-05-03T08:10:25.828Z,43.20
2018-05-03T08:12:54.282Z,44.50
2018-05-03T08:15:22.021Z,44.20
2018-05-03T08:17:49.755Z,44.80
2018-05-03T08:20:17.515Z,41.30
2018-05-03T08:22:45.238Z,42.60
2018-05-03T08:25:12.996Z,41.10
2018-05-03T08:27:40.689Z,40.00
2018-05-03T08:30:08.415Z,38.50
2018-05-03T08:32:36.943Z,38.50
2018-05-03T08:35:05.475Z,39.10
2018-05-03T08:37:33.203Z,39.00
2018-05-03T08:40:00.940Z,43.20
2018-05-03T08:42:28.652Z,39.20
2018-05-03T08:44:57.171Z,42.90
2018-05-03T08:47:24.862Z,42.90
2018-05-03T08:49:52.620Z,43.80
2018-05-03T08:52:20.312Z,43.60
2018-05-03T08:54:48.095Z,39.90
2018-05-03T08:57:15.847Z,41.60
2018-05-03T08:59:43.608Z,40.80
2018-05-03T09:02:11.316Z,41.70
2018-05-03T09:04:39.085Z,36.80
2018-05-03T09:07:06.805Z,36.10
2018-05-03T09:09:34.565Z,35.10
2018-05-03T09:12:02.355Z,35.70
2018-05-03T09:14:30.200Z,30.50
2018-05-03T09:16:58.231Z,33.20
2018-05-03T09:19:25.991Z,40.80
2018-05-03T09:21:53.728Z,36.30
2018-05-03T09:24:21.589Z,37.40
2018-05-03T09:26:49.377Z,36.80
2018-05-03T09:29:17.151Z,39.90
2018-05-03T09:31:45.614Z,37.30
2018-05-03T09:34:13.413Z,37.30
2018-05-03T09:36:41.932Z,35.30
2018-05-03T09:39:09.717Z,35.50
2018-05-03T09:41:37.475Z,38.70
2018-05-03T09:44:05.219Z,36.30
2018-05-03T09:46:32.964Z,35.70
2018-05-03T09:49:00.661Z,32.70
2018-05-03T09:51:28.387Z,32.10
2018-05-03T09:53:56.056Z,33.50
2018-05-03T09:56:24.640Z,32.00
2018-05-03T09:58:53.095Z,29.90
2018-05-03T10:01:20.907Z,29.90
2018-05-03T10:03:49.410Z,32.70
2018-05-03T10:06:17.909Z,31.40
2018-05-03T10:08:45.600Z,31.40
2018-05-03T10:11:13.394Z,32.10
2018-05-03T10:13:41.085Z,32.40
2018-05-03T10:16:08.854Z,33.00
2018-05-03T10:18:36.548Z,32.30
2018-05-03T10:21:04.403Z,30.30
2018-05-03T10:23:32.085Z,32.30
2018-05-03T10:25:59.807Z,31.20
2018-05-03T10:28:28.253Z,30.10
2018-05-03T10:30:56.008Z,30.10
2018-05-03T10:33:23.676Z,28.60
2018-05-03T10:35:51.469Z,29.80
2018-05-03T10:38:19.107Z,31.10
2018-05-03T10:40:47.638Z,28.70
2018-05-03T10:43:15.376Z,28.70
2018-05-03T10:45:43.890Z,31.00
2018-05-03T10:48:11.575Z,30.90
2018-05-03T10:50:39.520Z,31.90
2018-05-03T10:53:07.269Z,29.90
2018-05-03T10:55:35.005Z,31.00
2018-05-03T10:58:02.696Z,31.60
2018-05-03T11:00:30.476Z,34.60
2018-05-03T11:02:58.152Z,30.10
2018-05-03T11:05:25.957Z,32.00
2018-05-03T11:07:53.783Z,30.10
2018-05-03T11:10:21.523Z,29.90
2018-05-03T11:12:49.396Z,31.90
2018-05-03T11:15:18.337Z,29.40
2018-05-03T11:17:46.076Z,29.60
2018-05-03T11:20:17.419Z,31.80
2018-05-03T11:22:45.192Z,32.10
2018-05-03T11:25:13.004Z,33.10
2018-05-03T11:27:47.263Z,32.40
2018-05-03T11:30:30.571Z,32.30
2018-05-03T11:32:58.316Z,32.90
2018-05-03T11:35:26.589Z,31.60
2018-05-03T11:37:54.328Z,32.50
2018-05-03T11:40:22.846Z,33.30
2018-05-03T11:42:50.552Z,33.30
2018-05-03T11:45:18.291Z,31.40
2018-05-03T11:47:46.022Z,33.30
2018-05-03T11:50:13.793Z,32.70
2018-05-03T11:52:41.486Z,32.30
2018-05-03T11:55:09.715Z,34.20
2018-05-03T11:57:37.683Z,34.20
2018-05-03T12:00:06.237Z,33.90
2018-05-03T12:02:33.944Z,33.80
2018-05-03T12:05:01.632Z,33.80
2018-05-03T12:07:30.120Z,33.40
2018-05-03T12:09:58.609Z,32.90
2018-05-03T12:12:28.814Z,32.30
2018-05-03T12:14:57.354Z,33.20
2018-05-03T12:17:25.080Z,33.20
2018-05-03T12:19:52.779Z,33.20
2018-05-03T12:22:25.062Z,32.10
2018-05-03T12:24:53.639Z,33.00
2018-05-03T12:27:21.394Z,32.90
2018-05-03T12:29:49.110Z,34.10
2018-05-03T12:32:17.045Z,34.10
2018-05-03T12:34:44.810Z,33.60
2018-05-03T12:37:13.335Z,34.20
2018-05-03T12:39:41.017Z,34.10
2018-05-03T12:42:08.749Z,31.50
2018-05-03T12:44:36.486Z,31.30
2018-05-03T12:47:04.279Z,32.00
2018-05-03T12:49:32.009Z,33.60
2018-05-03T12:51:59.781Z,30.80
2018-05-03T12:54:27.543Z,32.50
2018-05-03T12:57:14.256Z,32.60
2018-05-03T12:59:41.970Z,32.00
2018-05-03T13:02:09.709Z,31.90
2018-05-03T13:04:37.422Z,32.10
2018-05-03T13:07:15.381Z,31.40
2018-05-03T13:09:43.088Z,32.20
2018-05-03T13:12:10.830Z,30.70
2018-05-03T13:14:39.444Z,31.70
2018-05-03T13:17:11.981Z,31.50
2018-05-03T13:19:39.743Z,29.40
2018-05-03T13:22:07.542Z,30.70
2018-05-03T13:24:35.277Z,30.10
2018-05-03T13:27:03.039Z,30.00
2018-05-03T13:29:33.846Z,30.10
2018-05-03T13:32:03.762Z,31.40
2018-05-03T13:34:39.130Z,29.50
2018-05-03T13:37:06.924Z,30.80
2018-05-03T13:39:35.508Z,30.00
2018-05-03T13:42:05.382Z,30.50
2018-05-03T13:44:33.161Z,30.30
2018-05-03T13:47:00.934Z,30.80
2018-05-03T13:49:28.651Z,30.90
2018-05-03T13:51:56.414Z,29.40
2018-05-03T13:54:24.167Z,30.10
2018-05-03T13:56:51.913Z,30.20
2018-05-03T13:59:20.373Z,28.80
2018-05-03T14:01:48.138Z,28.80
2018-05-03T14:04:15.849Z,28.20
2018-05-03T14:06:43.583Z,29.60
2018-05-03T14:09:11.244Z,28.70
2018-05-03T14:11:39.000Z,29.50
2018-05-03T14:14:06.772Z,29.30
2018-05-03T14:16:35.366Z,30.20
2018-05-03T14:19:03.104Z,30.20
2018-05-03T14:21:30.831Z,30.70
2018-05-03T14:23:58.574Z,30.30
2018-05-03T14:26:26.309Z,29.50
2018-05-03T14:28:54.046Z,30.40
2018-05-03T14:31:22.544Z,29.60
2018-05-03T14:33:51.061Z,29.00
2018-05-03T14:36:18.807Z,29.10
2018-05-03T14:38:46.500Z,28.50
2018-05-03T14:41:14.232Z,29.20
2018-05-03T14:43:42.031Z,28.40
2018-05-03T14:46:10.570Z,28.70
2018-05-03T14:48:38.280Z,28.70
2018-05-03T14:51:05.994Z,29.90
2018-05-03T14:53:33.932Z,30.60
2018-05-03T14:56:01.630Z,30.60
2018-05-03T14:58:29.339Z,30.00
2018-05-03T15:00:57.028Z,29.90
2018-05-03T15:03:24.758Z,30.00
2018-05-03T15:05:52.432Z,29.00
2018-05-03T15:08:20.132Z,28.50
2018-05-03T15:10:47.822Z,29.00
2018-05-03T15:13:15.568Z,28.30
2018-05-03T15:15:45.192Z,30.30
2018-05-03T15:18:12.982Z,30.20
2018-05-03T15:20:40.671Z,30.60
2018-05-03T15:23:08.408Z,29.60
2018-05-03T15:25:36.888Z,31.10
2018-05-03T15:28:04.636Z,31.00
2018-05-03T15:30:32.325Z,31.10
2018-05-03T15:33:00.059Z,29.50
2018-05-03T15:35:28.394Z,29.50
2018-05-03T15:37:56.228Z,30.50
2018-05-03T15:40:23.921Z,30.60
2018-05-03T15:42:52.123Z,30.90
2018-05-03T15:45:19.968Z,31.50
2018-05-03T15:47:47.772Z,31.40
2018-05-03T15:50:15.506Z,30.00
2018-05-03T15:52:43.261Z,31.10
2018-05-03T15:55:10.935Z,31.40
2018-05-03T15:57:38.734Z,30.60
2018-05-03T16:00:06.462Z,31.20
2018-05-03T16:02:34.257Z,31.10
2018-05-03T16:05:02.001Z,30.80
2018-05-03T16:07:29.758Z,30.80
2018-05-03T16:09:57.490Z,30.40
2018-05-03T16:12:25.281Z,31.70
2018-05-03T16:14:52.980Z,30.40
2018-05-03T16:17:20.758Z,31.30
2018-05-03T16:19:48.504Z,31.20
2018-05-03T16:22:17.090Z,31.30
2018-05-03T16:24:44.839Z,31.30
2018-05-03T16:27:12.658Z,29.40
2018-05-03T16:29:40.356Z,29.50
2018-05-03T16:32:08.083Z,30.00
2018-05-03T16:34:35.820Z,31.80
2018-05-03T16:37:03.613Z,30.80
2018-05-03T16:39:31.316Z,31.20
2018-05-03T16:41:59.079Z,30.70
2018-05-03T16:44:26.846Z,31.30
2018-05-03T16:46:54.591Z,31.30
2018-05-03T16:49:22.292Z,28.80
2018-05-03T16:51:50.040Z,30.50
2018-05-03T16:54:24.971Z,31.10
2018-05-03T16:57:09.025Z,31.30
2018-05-03T16:59:36.981Z,30.00
2018-05-03T17:02:04.762Z,31.50
2018-05-03T17:04:32.801Z,29.90
2018-05-03T17:07:00.549Z,29.20
2018-05-03T17:09:28.248Z,29.90
2018-05-03T17:11:56.017Z,30.20
2018-05-03T17:14:23.756Z,29.20
2018-05-03T17:16:51.510Z,30.30
2018-05-03T17:21:58.491Z,31.60
2018-05-03T17:24:44.952Z,30.90
2018-05-03T17:27:15.680Z,30.80
2018-05-03T17:29:43.443Z,30.90
2018-05-03T17:32:11.252Z,30.70
2018-05-03T17:34:39.008Z,31.10
2018-05-03T17:37:06.789Z,30.50
2018-05-03T17:39:34.579Z,32.20
2018-05-03T17:42:02.396Z,32.00
2018-05-03T17:44:30.240Z,32.80
2018-05-03T17:46:57.976Z,31.60
2018-05-03T17:49:26.565Z,31.60
2018-05-03T17:51:55.045Z,31.10
2018-05-03T17:54:32.820Z,31.00
2018-05-03T17:57:10.426Z,31.20
2018-05-03T17:59:39.032Z,30.00
2018-05-03T18:02:06.864Z,31.70
2018-05-03T18:04:34.567Z,31.10
2018-05-03T18:07:02.273Z,31.10
2018-05-03T18:09:30.082Z,30.90
2018-05-03T18:11:57.882Z,32.30
2018-05-03T18:14:25.648Z,33.60
2018-05-03T18:16:53.361Z,32.30
2018-05-03T18:19:21.092Z,33.60
2018-05-03T18:21:49.556Z,34.80
2018-05-03T18:24:17.450Z,34.90
2018-05-03T18:26:45.367Z,38.20
2018-05-03T18:29:13.154Z,40.20
2018-05-03T18:31:40.996Z,38.50
2018-05-03T18:34:08.928Z,38.70
2018-05-03T18:36:36.710Z,36.80
2018-05-03T18:39:05.082Z,37.90
2018-05-03T18:41:32.941Z,35.00
2018-05-03T18:44:01.022Z,39.50
2018-05-03T18:46:29.206Z,38.30
2018-05-03T18:48:56.950Z,38.50
2018-05-03T18:51:24.728Z,38.00
2018-05-03T18:53:53.507Z,39.90
2018-05-03T18:56:22.065Z,40.50
2018-05-03T18:58:51.154Z,39.60
2018-05-03T19:01:19.104Z,39.40
2018-05-03T19:03:46.908Z,37.50
2018-05-03T19:06:14.737Z,40.60
2018-05-03T19:08:42.592Z,40.50
2018-05-03T19:11:11.103Z,39.00
2018-05-03T19:13:39.036Z,39.40
2018-05-03T19:16:06.797Z,42.00
2018-05-03T19:18:34.557Z,39.70
2018-05-03T19:21:02.397Z,39.30
2018-05-03T19:23:30.357Z,40.10
2018-05-03T19:25:58.132Z,42.60
2018-05-03T19:28:26.130Z,38.10
2018-05-03T19:30:54.415Z,41.10
2018-05-03T19:33:22.400Z,39.40
2018-05-03T19:35:50.882Z,40.80
2018-05-03T19:38:18.644Z,40.60
2018-05-03T19:40:46.532Z,41.40
2018-05-03T19:43:14.455Z,42.30
2018-05-03T19:45:42.245Z,43.00
2018-05-03T19:48:10.001Z,41.80
2018-05-03T19:50:37.785Z,42.40
2018-05-03T19:53:05.963Z,42.10
2018-05-03T19:55:33.859Z,40.70
2018-05-03T19:58:01.941Z,40.80
2018-05-03T20:00:29.781Z,43.10
2018-05-03T20:02:57.580Z,42.00
2018-05-03T20:05:25.287Z,40.60
2018-05-03T20:07:53.135Z,41.50
2018-05-03T20:10:20.904Z,43.90
2018-05-03T20:12:48.769Z,40.70
2018-05-03T20:15:18.321Z,43.10
2018-05-03T20:17:46.189Z,43.10
2018-05-03T20:20:13.961Z,42.30
2018-05-03T20:22:41.732Z,41.00
2018-05-03T20:25:09.521Z,41.00
2018-05-03T20:27:37.332Z,41.50
2018-05-03T20:30:05.120Z,40.90
2018-05-03T20:32:34.761Z,40.90
2018-05-03T20:35:02.641Z,43.20
2018-05-03T20:37:30.432Z,41.90
2018-05-03T20:39:58.251Z,41.60
2018-05-03T20:42:26.026Z,41.20
2018-05-03T20:44:53.885Z,42.00
2018-05-03T20:47:21.633Z,41.70
2018-05-03T20:49:49.376Z,40.90
2018-05-03T20:52:17.127Z,42.30
2018-05-03T20:54:44.900Z,44.90
2018-05-03T20:57:12.610Z,45.10
2018-05-03T20:59:41.247Z,42.20
2018-05-03T21:02:08.933Z,42.00
2018-05-03T21:04:37.432Z,45.70
2018-05-03T21:07:05.897Z,45.10
2018-05-03T21:09:34.535Z,45.10
2018-05-03T21:12:02.243Z,45.00
2018-05-03T21:14:29.984Z,45.10
2018-05-03T21:16:57.735Z,44.90
2018-05-03T21:19:26.313Z,46.10
2018-05-03T21:21:54.028Z,46.10
2018-05-03T21:24:21.756Z,43.70
2018-05-03T21:26:49.509Z,45.80
2018-05-03T21:29:17.355Z,45.20
2018-05-03T21:31:45.837Z,43.20
2018-05-03T21:34:14.376Z,44.10
2018-05-03T21:36:42.101Z,44.00
2018-05-03T21:39:10.654Z,45.20
2018-05-03T21:41:38.406Z,45.10
2018-05-03T21:44:06.238Z,44.60
2018-05-03T21:46:33.936Z,44.00
2018-05-03T21:49:01.684Z,43.10
2018-05-03T21:51:29.401Z,42.90
2018-05-03T21:53:57.169Z,43.30
2018-05-03T21:56:24.853Z,42.30
2018-05-03T21:58:52.640Z,43.40
2018-05-03T22:01:20.752Z,43.80
2018-05-03T22:03:48.509Z,45.30
2018-05-03T22:06:16.320Z,45.20
2018-05-03T22:08:44.065Z,44.10
2018-05-03T22:11:11.778Z,42.20
2018-05-03T22:13:39.527Z,44.10
2018-05-03T22:16:07.321Z,43.30
2018-05-03T22:18:35.088Z,44.30
2018-05-03T22:21:02.837Z,44.10
2018-05-03T22:23:30.666Z,44.00
2018-05-03T22:25:58.466Z,44.40
2018-05-03T22:28:26.176Z,45.20
2018-05-03T22:30:53.918Z,44.50
2018-05-03T22:33:21.628Z,43.90
2018-05-03T22:35:49.436Z,43.80
2018-05-03T22:38:17.232Z,43.70
2018-05-03T22:40:45.026Z,43.70
2018-05-03T22:43:12.724Z,43.80
2018-05-03T22:45:40.553Z,44.10
2018-05-03T22:48:08.273Z,44.10
2018-05-03T22:50:35.983Z,45.50
2018-05-03T22:53:03.687Z,45.90
2018-05-03T22:55:31.401Z,45.10
2018-05-03T22:57:59.101Z,44.40
2018-05-03T23:00:26.820Z,44.50
2018-05-03T23:02:54.509Z,45.10
2018-05-03T23:05:22.279Z,44.50
2018-05-03T23:07:50.038Z,44.30
2018-05-03T23:10:17.754Z,44.90
2018-05-03T23:12:45.483Z,44.70
2018-05-03T23:15:13.247Z,44.70
2018-05-03T23:17:40.935Z,44.90
2018-05-03T23:20:08.768Z,44.80
2018-05-03T23:22:36.467Z,45.60
2018-05-03T23:25:04.284Z,46.20
2018-05-03T23:27:31.987Z,45.70
2018-05-03T23:29:59.806Z,45.50
2018-05-03T23:32:27.528Z,45.40
2018-05-03T23:34:55.341Z,45.40
2018-05-03T23:37:23.869Z,45.70
2018-05-03T23:39:51.631Z,45.70
2018-05-03T23:42:19.379Z,45.90
2018-05-03T23:44:47.994Z,46.00
2018-05-03T23:47:15.696Z,46.00
2018-05-03T23:49:43.426Z,46.00
2018-05-03T23:52:11.880Z,46.20
2018-05-03T23:54:39.651Z,46.20
2018-05-03T23:57:07.346Z,46.30
2018-05-03T23:59:35.117Z,46.60
